Vaassen, Netherlands
Current Conditions -  °F | °C
As of 8:55 AM on Sunday 26 Oct 2014 (Local Time) from EHDL Reporting Station
Overcast Overcast  
Wind Chill: 52°   Ceiling: 3900
Heat Index: 52°   Visibility: 6mi
Dew Point: 50°   Wind: 9mph
Humidity: 94%   Direction: 200°SSW
Pressure: 30.21"   Gusts: NA
Location:  52.29°N, 5.97°E
Report Text: EHDL 260655Z AUTO 20008KT 9999 OVC039 11/10 Q1023 BLU
Loading
Personal Weather Stations






























Interactive Weather Map New forecast layout! Learn more

10-Day Weather Forecast

Advertisements
Track Severe Weather on mobile